チタ・カダラ空港の過去48時間の天気

チタ・カダラ空港 (Chita)

現在時刻: 5/26 09:50 +09 (5/26 00:50 UTC) 以下の時間は現地時間です。

過去48時間のMETAR気象情報
時間 風向 風速(m/s) 視程 気温(℃) 湿度(%) 気圧(hPa) 天気現象
26 09:30 不定 1 10km以上 15 36 1009
26 09:00 静穏 0 10km以上 14 41 1009
26 08:30 静穏 0 10km以上 12 47 1010
26 08:00 静穏 0 10km以上 11 47 1010
26 07:30 静穏 0 10km以上 9 53 1010
26 07:00 静穏 0 10km以上 7 66 1010
26 06:30 静穏 0 10km以上 6 65 1010
26 06:00 西北西 2 10km以上 4 75 1011
26 05:30 静穏 0 10km以上 4 70 1010
26 05:00 静穏 0 10km以上 4 70 1011
26 04:30 不定 1 10km以上 4 70 1011
UIAA 260030Z VRB01MPS 9999 NSC 15/00 Q1009 R29/CLRD70 NOSIG RMK QFE698/0931
UIAA 260000Z 00000MPS 9999 NSC 14/01 Q1009 R29/70D NOSIG RMK QFE699/0932
UIAA 252330Z 00000MPS 9999 NSC 12/01 Q1010 R29/70D NOSIG RMK QFE699/0932
UIAA 252300Z 00000MPS 9999 NSC 11/00 Q1010 R29/70D NOSIG RMK QFE699/0932
UIAA 252230Z 00000MPS 9999 NSC 09/00 Q1010 R29/70D NOSIG RMK QFE699/0933
UIAA 252200Z 00000MPS 9999 NSC 07/01 Q1010 R29/70D NOSIG RMK QFE699/0933
UIAA 252130Z 00000MPS 9999 NSC 06/00 Q1010 R29/70D NOSIG RMK QFE699/0933
UIAA 252100Z 29002MPS 9999 NSC 04/M00 Q1011 R29/70D NOSIG RMK QFE700/0933
UIAA 252030Z 00000MPS 9999 NSC 04/M01 Q1010 R29/70D NOSIG RMK QFE699/0933
UIAA 252000Z 00000MPS 9999 NSC 04/M01 Q1011 R29/70D NOSIG RMK QFE700/0933
UIAA 251930Z VRB01MPS 9999 NSC 04/M01 Q1011 R29/70D NOSIG RMK QFE700/0933